Time;durP1;ratioP1;P1;durP2;ratioP2;P2;SDS_P1;SDS_P2;PMS_P1;PMS_P2;Temp;Humidity;BMP_temperature;BMP_pressure;BME280_temperature;BME280_humidity;BME280_pressure;Samples;Min_cycle;Max_cycle;Signal;HPM_P1;HPM_P2
2023/04/12 00:02:20;;;;;;;5.5;2.4;;;;;;;;;;;;;
2023/04/12 00:04:54;;;;;;;4.8;2.6;;;;;;;;;;;;;
2023/04/12 00:07:11;;;;;;;3.8;2.3;;;;;;;;;;;;;
2023/04/12 00:09:38;;;;;;;3.5;2;;;;;;;;;;;;;
2023/04/12 00:12:03;;;;;;;3.3;1.9;;;;;;;;;;;;;
2023/04/12 00:14:28;;;;;;;4.6;2.2;;;;;;;;;;;;;
2023/04/12 00:16:53;;;;;;;3.9;2.1;;;;;;;;;;;;;
2023/04/12 00:19:18;;;;;;;3.5;2.3;;;;;;;;;;;;;
2023/04/12 00:21:43;;;;;;;4.2;2.4;;;;;;;;;;;;;
2023/04/12 00:24:08;;;;;;;3.1;2.3;;;;;;;;;;;;;
2023/04/12 00:26:33;;;;;;;3.3;2.5;;;;;;;;;;;;;
2023/04/12 00:29:00;;;;;;;4.3;2.5;;;;;;;;;;;;;
2023/04/12 00:31:25;;;;;;;4.4;2.7;;;;;;;;;;;;;
2023/04/12 00:33:51;;;;;;;3.9;2.2;;;;;;;;;;;;;
2023/04/12 00:36:16;;;;;;;5.5;2.5;;;;;;;;;;;;;
2023/04/12 00:38:41;;;;;;;2.8;1.9;;;;;;;;;;;;;
2023/04/12 00:41:06;;;;;;;3.6;2;;;;;;;;;;;;;
2023/04/12 00:43:31;;;;;;;3.4;1.9;;;;;;;;;;;;;
2023/04/12 00:45:57;;;;;;;2.8;1.8;;;;;;;;;;;;;
2023/04/12 00:48:22;;;;;;;1.7;1.6;;;;;;;;;;;;;
2023/04/12 00:50:48;;;;;;;2.3;1.8;;;;;;;;;;;;;
2023/04/12 00:53:13;;;;;;;1.8;1.5;;;;;;;;;;;;;
2023/04/12 00:55:38;;;;;;;2.9;1.6;;;;;;;;;;;;;
2023/04/12 00:58:04;;;;;;;2.1;1.3;;;;;;;;;;;;;
2023/04/12 01:00:28;;;;;;;2.3;1.6;;;;;;;;;;;;;
2023/04/12 01:02:54;;;;;;;1.6;1.5;;;;;;;;;;;;;
2023/04/12 01:05:21;;;;;;;1.5;1.4;;;;;;;;;;;;;
2023/04/12 01:07:45;;;;;;;2.5;1.4;;;;;;;;;;;;;
2023/04/12 01:10:26;;;;;;;1.4;1.3;;;;;;;;;;;;;
2023/04/12 01:12:51;;;;;;;1.7;1.5;;;;;;;;;;;;;
2023/04/12 01:15:16;;;;;;;3.6;1.2;;;;;;;;;;;;;
2023/04/12 01:17:41;;;;;;;1.8;1.4;;;;;;;;;;;;;
2023/04/12 01:20:15;;;;;;;1.4;1.3;;;;;;;;;;;;;
2023/04/12 01:22:36;;;;;;;4.2;1.5;;;;;;;;;;;;;
2023/04/12 01:25:00;;;;;;;2;1.3;;;;;;;;;;;;;
2023/04/12 01:27:28;;;;;;;1.4;1.2;;;;;;;;;;;;;
2023/04/12 01:29:51;;;;;;;2.1;1.4;;;;;;;;;;;;;
2023/04/12 01:32:17;;;;;;;2.8;1.6;;;;;;;;;;;;;
2023/04/12 01:34:42;;;;;;;1.4;1.3;;;;;;;;;;;;;
2023/04/12 01:37:07;;;;;;;1.3;1.2;;;;;;;;;;;;;
2023/04/12 01:39:32;;;;;;;2.9;1.4;;;;;;;;;;;;;
2023/04/12 01:41:57;;;;;;;1.8;1.3;;;;;;;;;;;;;
2023/04/12 01:44:22;;;;;;;2.1;1.3;;;;;;;;;;;;;
2023/04/12 01:46:47;;;;;;;1.3;1.2;;;;;;;;;;;;;
2023/04/12 01:49:13;;;;;;;1;1;;;;;;;;;;;;;
2023/04/12 01:51:38;;;;;;;2.8;1.5;;;;;;;;;;;;;
2023/04/12 01:54:09;;;;;;;2.4;1.3;;;;;;;;;;;;;
2023/04/12 01:56:28;;;;;;;1.5;1.2;;;;;;;;;;;;;
2023/04/12 01:58:53;;;;;;;5.6;3.3;;;;;;;;;;;;;
2023/04/12 02:01:18;;;;;;;3.7;2.3;;;;;;;;;;;;;
2023/04/12 02:03:43;;;;;;;2;1.3;;;;;;;;;;;;;
2023/04/12 02:06:10;;;;;;;2.4;1.5;;;;;;;;;;;;;
2023/04/12 02:08:35;;;;;;;2;1.4;;;;;;;;;;;;;
2023/04/12 02:11:01;;;;;;;2.6;1.5;;;;;;;;;;;;;
2023/04/12 02:13:27;;;;;;;2.6;1.7;;;;;;;;;;;;;
2023/04/12 02:15:53;;;;;;;2.1;1.5;;;;;;;;;;;;;
2023/04/12 02:18:18;;;;;;;3.2;1.5;;;;;;;;;;;;;
2023/04/12 02:20:42;;;;;;;2.3;1.6;;;;;;;;;;;;;
2023/04/12 02:23:07;;;;;;;2.6;1.4;;;;;;;;;;;;;
2023/04/12 02:25:34;;;;;;;1.8;1.5;;;;;;;;;;;;;
2023/04/12 02:27:58;;;;;;;2.4;2.2;;;;;;;;;;;;;
2023/04/12 02:30:23;;;;;;;2.1;1.9;;;;;;;;;;;;;
2023/04/12 02:32:50;;;;;;;2.1;1.5;;;;;;;;;;;;;
2023/04/12 02:35:16;;;;;;;2.5;1.6;;;;;;;;;;;;;
2023/04/12 02:37:40;;;;;;;2.5;1.6;;;;;;;;;;;;;
2023/04/12 02:40:05;;;;;;;1.7;1.4;;;;;;;;;;;;;
2023/04/12 02:42:30;;;;;;;3;1.4;;;;;;;;;;;;;
2023/04/12 02:44:55;;;;;;;2;1.4;;;;;;;;;;;;;
2023/04/12 02:47:20;;;;;;;2.1;1.5;;;;;;;;;;;;;
2023/04/12 02:49:45;;;;;;;5.5;1.7;;;;;;;;;;;;;
2023/04/12 02:52:10;;;;;;;1.6;1.5;;;;;;;;;;;;;
2023/04/12 02:54:35;;;;;;;3.1;1.5;;;;;;;;;;;;;
2023/04/12 02:57:02;;;;;;;2.6;1.5;;;;;;;;;;;;;
2023/04/12 02:59:27;;;;;;;2.7;1.7;;;;;;;;;;;;;
2023/04/12 03:01:53;;;;;;;3.4;1.7;;;;;;;;;;;;;
2023/04/12 03:04:18;;;;;;;2.6;1.6;;;;;;;;;;;;;
2023/04/12 03:06:52;;;;;;;2.3;1.6;;;;;;;;;;;;;
2023/04/12 03:09:10;;;;;;;2;1.8;;;;;;;;;;;;;
2023/04/12 03:11:37;;;;;;;2.3;1.6;;;;;;;;;;;;;
2023/04/12 03:14:02;;;;;;;2.2;1.6;;;;;;;;;;;;;
2023/04/12 03:16:28;;;;;;;2.8;1.7;;;;;;;;;;;;;
2023/04/12 03:18:53;;;;;;;1.7;1.6;;;;;;;;;;;;;
2023/04/12 03:21:18;;;;;;;2.8;1.4;;;;;;;;;;;;;
2023/04/12 03:23:43;;;;;;;1.4;1.3;;;;;;;;;;;;;
2023/04/12 03:26:10;;;;;;;1.4;1.3;;;;;;;;;;;;;
2023/04/12 03:28:35;;;;;;;3.2;1.5;;;;;;;;;;;;;
2023/04/12 03:31:00;;;;;;;2.7;1.6;;;;;;;;;;;;;
2023/04/12 03:33:25;;;;;;;4.3;1.9;;;;;;;;;;;;;
2023/04/12 03:36:06;;;;;;;4.8;1.8;;;;;;;;;;;;;
2023/04/12 03:38:31;;;;;;;2.8;2;;;;;;;;;;;;;
2023/04/12 03:40:56;;;;;;;4.9;2.6;;;;;;;;;;;;;
2023/04/12 03:43:23;;;;;;;3;2.3;;;;;;;;;;;;;
2023/04/12 03:45:47;;;;;;;3.7;2.4;;;;;;;;;;;;;
2023/04/12 03:48:15;;;;;;;3.2;2;;;;;;;;;;;;;
2023/04/12 03:50:43;;;;;;;2.6;1.8;;;;;;;;;;;;;
2023/04/12 03:53:04;;;;;;;4.2;1.9;;;;;;;;;;;;;
2023/04/12 03:55:29;;;;;;;2.7;2;;;;;;;;;;;;;
2023/04/12 03:57:56;;;;;;;3.2;2.2;;;;;;;;;;;;;
2023/04/12 04:03:07;;;;;;;3.3;2;;;;;;;5.21;97.74805;931.7247;;;;
2023/04/12 04:05:32;;;;;;;3.2;1.9;;;;;;;5.31;97.72754;931.6753;;;;
2023/04/12 04:08:01;;;;;;;4.7;1.8;;;;;;;5.19;97.64258;931.6301;;;;
2023/04/12 04:10:26;;;;;;;3.2;2;;;;;;;5.09;98.43164;931.555;;;;
2023/04/12 04:12:53;;;;;;;3.3;2.2;;;;;;;5.15;99.16992;931.5601;;;;
2023/04/12 04:15:18;;;;;;;2.5;1.8;;;;;;;5.18;98.55566;931.5748;;;;
2023/04/12 04:17:48;;;;;;;2.6;2.1;;;;;;;5.12;98.90039;931.5602;;;;
2023/04/12 04:23:37;;;;;;;2.2;1.6;;;;;;;5.03;99.45605;931.5231;;;;
2023/04/12 04:26:04;;;;;;;2.5;1.7;;;;;;;5.06;99.11328;931.5244;;;;
2023/04/12 04:28:26;;;;;;;2.3;1.7;;;;;;;5.08;99.39941;931.4395;;;;
2023/04/12 04:30:56;;;;;;;4;1.9;;;;;;;5.15;99.51563;931.4235;;;;
2023/04/12 04:33:26;;;;;;;2.2;1.8;;;;;;;5.18;99.27539;931.3933;;;;
2023/04/12 04:35:51;;;;;;;2.4;1.6;;;;;;;5.14;99.16406;931.2986;;;;
2023/04/12 04:38:24;;;;;;;4.1;1.9;;;;;;;5.19;99.12207;931.2957;;;;
2023/04/12 04:40:46;;;;;;;2.6;1.8;;;;;;;5.22;99.01367;931.3114;;;;
2023/04/12 04:43:17;;;;;;;3.5;2.1;;;;;;;5.19;99.17578;931.3066;;;;
2023/04/12 05:07:22;;;;;;;3.4;2;;;;;;;4.84;100;931.217;;;;
2023/04/12 05:09:47;;;;;;;3.2;2;;;;;;;4.87;100;931.1576;;;;
2023/04/12 05:12:14;;;;;;;3.5;2.2;;;;;;;4.97;100;931.2645;;;;
2023/04/12 05:14:41;;;;;;;3.7;2.4;;;;;;;4.97;99.89258;931.1627;;;;
2023/04/12 05:17:12;;;;;;;6.2;2.9;;;;;;;4.9;99.66309;931.1331;;;;
2023/04/12 05:19:38;;;;;;;2.6;1.9;;;;;;;4.93;99.47559;931.1517;;;;
2023/04/12 05:22:06;;;;;;;6.7;4.5;;;;;;;5;98.64746;931.1356;;;;
2023/04/12 05:24:32;;;;;;;6;4.5;;;;;;;5.06;98.85156;931.103;;;;
2023/04/12 05:26:58;;;;;;;2.7;1.9;;;;;;;5.02;97.55859;931.0574;;;;
2023/04/12 05:29:23;;;;;;;4;1.6;;;;;;;4.99;98.00293;931.0337;;;;
2023/04/12 05:31:51;;;;;;;2.4;1.8;;;;;;;5.06;99;931.0092;;;;
2023/04/12 05:34:16;;;;;;;1.9;1.7;;;;;;;5.22;98.87793;930.9744;;;;
2023/04/12 05:36:43;;;;;;;2.4;1.7;;;;;;;5.4;97.03809;930.867;;;;
2023/04/12 05:39:08;;;;;;;2.5;1.5;;;;;;;5.43;97.33691;930.927;;;;
2023/04/12 05:41:36;;;;;;;3.1;1.8;;;;;;;5.35;95.2207;930.8976;;;;
2023/04/12 05:44:02;;;;;;;3.1;1.7;;;;;;;5.26;96.40723;930.8552;;;;
2023/04/12 05:46:30;;;;;;;2.5;1.6;;;;;;;5.19;96.83105;930.8245;;;;
2023/04/12 05:48:55;;;;;;;3;1.5;;;;;;;5.12;97.34668;930.7847;;;;
2023/04/12 05:51:20;;;;;;;3.6;1.6;;;;;;;5.17;97.67188;930.7603;;;;
2023/04/12 05:53:48;;;;;;;3.1;2.4;;;;;;;5.15;97.72656;930.6873;;;;
2023/04/12 05:56:13;;;;;;;3;2.4;;;;;;;5.19;97.85938;930.6549;;;;
2023/04/12 05:58:42;;;;;;;4.2;2.9;;;;;;;5.2;97.52051;930.5176;;;;
2023/04/12 06:01:11;;;;;;;7.7;3.7;;;;;;;5.27;98.24805;930.505;;;;
2023/04/12 06:03:40;;;;;;;7.4;4.1;;;;;;;5.33;98.65723;930.5627;;;;
2023/04/12 06:06:01;;;;;;;7.8;4.1;;;;;;;5.49;98.06055;930.5333;;;;
2023/04/12 06:08:29;;;;;;;5.7;3.7;;;;;;;5.54;97.56543;930.5064;;;;
2023/04/12 06:10:54;;;;;;;4.6;3.1;;;;;;;5.56;96.72266;930.4664;;;;
2023/04/12 06:13:21;;;;;;;3.3;2.7;;;;;;;5.28;96.9209;930.4814;;;;
2023/04/12 06:15:47;;;;;;;5.5;5;;;;;;;5.25;97.25977;930.4445;;;;
2023/04/12 06:18:14;;;;;;;3.6;2.8;;;;;;;5.26;97.60254;930.4662;;;;
2023/04/12 06:20:38;;;;;;;4.1;2.8;;;;;;;5.27;97.9541;930.4316;;;;
2023/04/12 06:23:08;;;;;;;3.9;2.7;;;;;;;5.37;97.81738;930.4047;;;;
2023/04/12 06:25:37;;;;;;;3.9;2.4;;;;;;;5.43;96.62402;930.3696;;;;
2023/04/12 06:28:02;;;;;;;3.5;1.8;;;;;;;5.48;97.06543;930.3198;;;;
2023/04/12 06:30:27;;;;;;;4.3;1.7;;;;;;;5.59;96.76465;930.3753;;;;
2023/04/12 06:32:53;;;;;;;4.4;1.7;;;;;;;5.52;94.23145;930.3624;;;;
2023/04/12 06:35:23;;;;;;;3.6;2.1;;;;;;;5.46;94.20898;930.3583;;;;
2023/04/12 06:37:53;;;;;;;2.4;1.7;;;;;;;5.62;94.6709;930.3278;;;;
2023/04/12 06:40:18;;;;;;;1.7;1.4;;;;;;;5.75;93.84277;930.2287;;;;
2023/04/12 06:42:43;;;;;;;3.4;1.5;;;;;;;5.71;91.40625;930.2123;;;;
2023/04/12 06:45:10;;;;;;;3.1;1.8;;;;;;;5.74;91.85156;930.1454;;;;
2023/04/12 06:47:35;;;;;;;3.3;1.5;;;;;;;5.76;91.77734;930.0471;;;;
2023/04/12 06:50:01;;;;;;;2.7;1.9;;;;;;;5.91;92.67969;930.0829;;;;
2023/04/12 06:52:26;;;;;;;3.1;1.6;;;;;;;6;92.33789;930.0273;;;;
2023/04/12 06:54:51;;;;;;;3.1;1.9;;;;;;;6.1;92.47168;930.0596;;;;
2023/04/12 06:57:17;;;;;;;2.2;1.6;;;;;;;6.03;92.02734;929.9545;;;;
2023/04/12 06:59:41;;;;;;;2.8;1.9;;;;;;;5.99;92.20898;929.9567;;;;
2023/04/12 07:02:08;;;;;;;3.2;2;;;;;;;6.2;92.66309;929.9778;;;;
2023/04/12 07:04:33;;;;;;;2.8;1.9;;;;;;;6.23;92.20508;929.9373;;;;
2023/04/12 07:06:59;;;;;;;2.1;1.7;;;;;;;6.31;91.75977;929.8546;;;;
2023/04/12 07:09:24;;;;;;;5.2;3;;;;;;;6.32;91.42383;929.8452;;;;
2023/04/12 07:11:51;;;;;;;5.6;2.9;;;;;;;6.36;91.125;929.678;;;;
2023/04/12 07:14:16;;;;;;;3.2;1.7;;;;;;;6.36;90.19727;929.7318;;;;
2023/04/12 07:16:44;;;;;;;2.8;1.6;;;;;;;6.49;89.51367;929.675;;;;
2023/04/12 07:19:09;;;;;;;2.4;1.7;;;;;;;6.54;90.50879;929.6985;;;;
2023/04/12 07:21:36;;;;;;;3.5;1.7;;;;;;;6.56;90.01465;929.6877;;;;
2023/04/12 07:24:02;;;;;;;3;1.5;;;;;;;6.52;90.08496;929.6563;;;;
2023/04/12 07:26:29;;;;;;;2.1;1.3;;;;;;;6.62;90.0625;929.6537;;;;
2023/04/12 07:28:53;;;;;;;2.6;1.2;;;;;;;6.58;90.15625;929.5652;;;;
2023/04/12 07:31:19;;;;;;;1.3;1;;;;;;;6.7;90.18066;929.5817;;;;
2023/04/12 07:33:44;;;;;;;0.8;0.8;;;;;;;6.79;88.625;929.4473;;;;
2023/04/12 07:36:15;;;;;;;1.2;1;;;;;;;6.85;85.30957;929.4077;;;;
2023/04/12 07:38:38;;;;;;;1.3;0.8;;;;;;;6.79;86.88184;929.3625;;;;
2023/04/12 07:41:04;;;;;;;1.1;0.9;;;;;;;6.93;87.54297;929.3071;;;;
2023/04/12 07:43:29;;;;;;;1.2;0.8;;;;;;;7.11;87.45508;929.3477;;;;
2023/04/12 07:46:03;;;;;;;1.1;1;;;;;;;7.21;86.6377;929.3175;;;;
2023/04/12 07:48:24;;;;;;;1.5;0.9;;;;;;;7.13;88.4375;929.2822;;;;
2023/04/12 07:50:52;;;;;;;1.2;1;;;;;;;7.33;87.53516;929.3044;;;;
2023/04/12 07:53:17;;;;;;;1.9;1.3;;;;;;;7.45;86.8584;929.3214;;;;
2023/04/12 07:55:43;;;;;;;2.2;1.4;;;;;;;7.51;87.33398;929.2654;;;;
2023/04/12 07:58:09;;;;;;;1.6;1.2;;;;;;;7.57;87.80078;929.2224;;;;
2023/04/12 08:00:36;;;;;;;1.3;1;;;;;;;7.58;87.06543;929.2136;;;;
2023/04/12 08:03:01;;;;;;;1;0.7;;;;;;;7.33;86.83301;929.2728;;;;
2023/04/12 08:05:28;;;;;;;1.1;1;;;;;;;7.44;87.97656;929.3664;;;;
2023/04/12 08:07:53;;;;;;;1.4;1.1;;;;;;;7.44;87.09277;929.4528;;;;
2023/04/12 08:10:24;;;;;;;3.1;2.3;;;;;;;7.25;88.16504;929.4764;;;;
2023/04/12 08:12:50;;;;;;;6.6;4.6;;;;;;;7.1;90.09277;929.4703;;;;
2023/04/12 08:15:15;;;;;;;5.4;3.4;;;;;;;7.35;90.72363;929.4146;;;;
2023/04/12 08:17:42;;;;;;;2.8;1.9;;;;;;;7.63;90.61328;929.3544;;;;
2023/04/12 08:20:07;;;;;;;3.1;1.7;;;;;;;7.84;89.93066;929.4153;;;;
2023/04/12 08:22:33;;;;;;;2.7;2;;;;;;;7.99;90.23535;929.2709;;;;
2023/04/12 08:24:58;;;;;;;1.9;1.6;;;;;;;8.24;90.15234;929.2028;;;;
2023/04/12 08:27:29;;;;;;;2.1;1.6;;;;;;;8.25;89.54004;929.1362;;;;
2023/04/12 08:29:56;;;;;;;2.7;1.8;;;;;;;8.49;88.20508;928.9978;;;;
2023/04/12 08:32:21;;;;;;;1.9;1.5;;;;;;;8.67;87.68457;928.8627;;;;
2023/04/12 08:34:48;;;;;;;4.5;1.4;;;;;;;8.96;86.96973;928.6917;;;;
2023/04/12 08:37:13;;;;;;;1.6;0.7;;;;;;;8.83;84.85059;928.6273;;;;
2023/04/12 08:39:38;;;;;;;0.9;0.7;;;;;;;8.87;82.62988;928.6663;;;;
2023/04/12 08:42:03;;;;;;;1.4;1.3;;;;;;;8.84;85.60254;928.7456;;;;
2023/04/12 08:44:31;;;;;;;1.3;1.1;;;;;;;8.76;86.15527;928.7335;;;;
2023/04/12 08:46:56;;;;;;;0.6;0.6;;;;;;;8.78;83.96582;928.7327;;;;
2023/04/12 08:49:25;;;;;;;0.6;0.5;;;;;;;8.69;83.77734;928.7722;;;;
2023/04/12 08:51:50;;;;;;;1.2;1;;;;;;;8.84;85.15918;928.717;;;;
2023/04/12 08:54:15;;;;;;;1.1;1;;;;;;;;;;;;;
2023/04/12 08:56:41;;;;;;;1.1;0.9;;;;;;;;;;;;;
2023/04/12 08:59:06;;;;;;;1;1;;;;;;;;;;;;;
2023/04/12 09:01:31;;;;;;;4.8;2.7;;;;;;;;;;;;;
2023/04/12 09:03:56;;;;;;;2.5;2;;;;;;;;;;;;;
2023/04/12 09:06:21;;;;;;;1.2;0.9;;;;;;;;;;;;;
2023/04/12 09:08:46;;;;;;;0.9;0.8;;;;;;;;;;;;;
2023/04/12 09:11:11;;;;;;;0.7;0.5;;;;;;;;;;;;;
2023/04/12 09:13:37;;;;;;;1.6;0.8;;;;;;;;;;;;;
2023/04/12 09:16:03;;;;;;;2.3;1.2;;;;;;;;;;;;;
2023/04/12 09:18:28;;;;;;;2.2;0.7;;;;;;;;;;;;;
2023/04/12 09:20:53;;;;;;;3.2;1.4;;;;;;;;;;;;;
2023/04/12 09:23:19;;;;;;;6;1.3;;;;;;;;;;;;;
2023/04/12 09:25:47;;;;;;;4.6;1.3;;;;;;;;;;;;;
2023/04/12 09:28:09;;;;;;;1.4;0.9;;;;;;;;;;;;;
2023/04/12 09:30:34;;;;;;;0.7;0.6;;;;;;;;;;;;;
2023/04/12 09:32:59;;;;;;;1.1;0.8;;;;;;;;;;;;;
2023/04/12 09:35:24;;;;;;;1.4;1.1;;;;;;;;;;;;;
2023/04/12 09:37:50;;;;;;;0.5;0.5;;;;;;;;;;;;;
2023/04/12 09:40:15;;;;;;;1.3;0.8;;;;;;;;;;;;;
2023/04/12 09:42:42;;;;;;;14.1;2.8;;;;;;;;;;;;;
2023/04/12 09:45:07;;;;;;;2.8;1.2;;;;;;;;;;;;;
2023/04/12 09:47:35;;;;;;;2;0.9;;;;;;;;;;;;;
2023/04/12 09:50:03;;;;;;;3.5;0.8;;;;;;;;;;;;;
2023/04/12 09:52:29;;;;;;;0.9;0.6;;;;;;;;;;;;;
2023/04/12 09:54:56;;;;;;;0.6;0.5;;;;;;;;;;;;;
2023/04/12 09:57:20;;;;;;;1.4;0.5;;;;;;;;;;;;;
2023/04/12 09:59:46;;;;;;;0.7;0.6;;;;;;;;;;;;;
2023/04/12 10:02:11;;;;;;;0.9;0.7;;;;;;;;;;;;;
2023/04/12 10:04:37;;;;;;;0.6;0.6;;;;;;;;;;;;;
2023/04/12 10:07:02;;;;;;;0.7;0.7;;;;;;;;;;;;;
2023/04/12 10:09:27;;;;;;;0.7;0.4;;;;;;;;;;;;;
2023/04/12 10:11:53;;;;;;;0.5;0.5;;;;;;;;;;;;;
2023/04/12 10:14:19;;;;;;;0.4;0.4;;;;;;;;;;;;;
2023/04/12 10:16:44;;;;;;;1.1;0.6;;;;;;;;;;;;;
2023/04/12 10:19:09;;;;;;;0.6;0.6;;;;;;;;;;;;;
2023/04/12 10:21:34;;;;;;;0.6;0.5;;;;;;;;;;;;;
2023/04/12 10:23:59;;;;;;;2.3;0.5;;;;;;;;;;;;;
2023/04/12 10:26:26;;;;;;;1.2;0.8;;;;;;;;;;;;;
2023/04/12 10:28:51;;;;;;;0.6;0.4;;;;;;;;;;;;;
2023/04/12 10:31:17;;;;;;;0.4;0.4;;;;;;;;;;;;;
2023/04/12 10:33:42;;;;;;;0.7;0.5;;;;;;;;;;;;;
2023/04/12 10:36:11;;;;;;;0.6;0.5;;;;;;;;;;;;;
2023/04/12 10:38:36;;;;;;;0.3;0.3;;;;;;;;;;;;;
2023/04/12 10:40:58;;;;;;;0.3;0.3;;;;;;;;;;;;;
2023/04/12 10:43:25;;;;;;;0.3;0.3;;;;;;;;;;;;;
2023/04/12 10:45:49;;;;;;;0.7;0.4;;;;;;;;;;;;;
2023/04/12 10:48:16;;;;;;;0.7;0.7;;;;;;;;;;;;;
2023/04/12 10:50:41;;;;;;;0.5;0.5;;;;;;;;;;;;;
2023/04/12 10:53:06;;;;;;;0.5;0.4;;;;;;;;;;;;;
2023/04/12 10:55:32;;;;;;;0.4;0.4;;;;;;;;;;;;;
2023/04/12 10:57:58;;;;;;;0.4;0.3;;;;;;;;;;;;;
2023/04/12 11:00:23;;;;;;;0.6;0.3;;;;;;;;;;;;;
2023/04/12 11:02:48;;;;;;;1;0.2;;;;;;;;;;;;;
2023/04/12 11:05:17;;;;;;;0.3;0.3;;;;;;;;;;;;;
2023/04/12 11:07:38;;;;;;;1.7;1.2;;;;;;;;;;;;;
2023/04/12 11:10:06;;;;;;;0.4;0.4;;;;;;;;;;;;;
2023/04/12 11:12:31;;;;;;;0.4;0.4;;;;;;;;;;;;;
2023/04/12 11:14:56;;;;;;;0.3;0.3;;;;;;;;;;;;;
2023/04/12 11:17:21;;;;;;;1.4;1.3;;;;;;;;;;;;;
2023/04/12 11:19:47;;;;;;;0.3;0.3;;;;;;;;;;;;;
2023/04/12 11:22:12;;;;;;;0.4;0.4;;;;;;;;;;;;;
2023/04/12 11:24:37;;;;;;;0.4;0.4;;;;;;;;;;;;;
2023/04/12 11:27:03;;;;;;;1.3;0.3;;;;;;;;;;;;;
2023/04/12 11:29:28;;;;;;;0.5;0.4;;;;;;;;;;;;;
2023/04/12 11:31:55;;;;;;;0.4;0.4;;;;;;;;;;;;;
2023/04/12 11:34:20;;;;;;;0.3;0.3;;;;;;;;;;;;;
2023/04/12 11:36:45;;;;;;;0.2;0.2;;;;;;;;;;;;;
2023/04/12 11:39:10;;;;;;;0.4;0.4;;;;;;;;;;;;;
2023/04/12 11:41:37;;;;;;;0.4;0.4;;;;;;;;;;;;;
2023/04/12 11:44:02;;;;;;;0.4;0.4;;;;;;;;;;;;;
2023/04/12 11:46:28;;;;;;;0.2;0.2;;;;;;;;;;;;;
2023/04/12 11:48:53;;;;;;;0.4;0.4;;;;;;;;;;;;;
2023/04/12 11:51:18;;;;;;;0.2;0.2;;;;;;;;;;;;;
2023/04/12 11:53:43;;;;;;;0.2;0.2;;;;;;;;;;;;;
2023/04/12 11:56:10;;;;;;;0.2;0.2;;;;;;;;;;;;;
2023/04/12 11:58:35;;;;;;;0.4;0.4;;;;;;;;;;;;;
2023/04/12 12:01:01;;;;;;;0.4;0.4;;;;;;;;;;;;;
2023/04/12 12:03:26;;;;;;;0.4;0.4;;;;;;;;;;;;;
2023/04/12 12:05:52;;;;;;;0.5;0.4;;;;;;;;;;;;;
2023/04/12 12:08:17;;;;;;;0.3;0.3;;;;;;;;;;;;;
2023/04/12 12:10:44;;;;;;;0.5;0.5;;;;;;;;;;;;;
2023/04/12 12:13:09;;;;;;;0.6;0.4;;;;;;;;;;;;;
2023/04/12 12:15:37;;;;;;;0.3;0.3;;;;;;;;;;;;;
2023/04/12 12:18:02;;;;;;;0.4;0.4;;;;;;;;;;;;;
2023/04/12 12:20:30;;;;;;;0.8;0.4;;;;;;;;;;;;;
2023/04/12 12:22:54;;;;;;;0.6;0.5;;;;;;;;;;;;;
2023/04/12 12:25:20;;;;;;;0.3;0.3;;;;;;;;;;;;;
2023/04/12 12:27:47;;;;;;;0.4;0.4;;;;;;;;;;;;;
2023/04/12 12:30:14;;;;;;;1.2;0.4;;;;;;;;;;;;;
2023/04/12 12:32:39;;;;;;;0.7;0.3;;;;;;;;;;;;;
2023/04/12 12:35:05;;;;;;;0.3;0.3;;;;;;;;;;;;;
2023/04/12 12:37:29;;;;;;;0.6;0.3;;;;;;;;;;;;;
2023/04/12 12:39:55;;;;;;;1;0.4;;;;;;;;;;;;;
2023/04/12 12:42:20;;;;;;;0.3;0.3;;;;;;;;;;;;;
2023/04/12 12:44:45;;;;;;;0.7;0.4;;;;;;;;;;;;;
2023/04/12 12:47:10;;;;;;;0.6;0.4;;;;;;;;;;;;;
2023/04/12 12:49:36;;;;;;;0.9;0.4;;;;;;;;;;;;;
2023/04/12 12:52:01;;;;;;;0.7;0.6;;;;;;;;;;;;;
2023/04/12 12:54:26;;;;;;;1.3;0.6;;;;;;;;;;;;;
2023/04/12 12:56:52;;;;;;;0.5;0.5;;;;;;;;;;;;;
2023/04/12 12:59:17;;;;;;;0.3;0.3;;;;;;;;;;;;;
2023/04/12 13:01:43;;;;;;;1.4;0.3;;;;;;;;;;;;;
2023/04/12 13:04:09;;;;;;;0.9;0.6;;;;;;;;;;;;;
2023/04/12 13:06:37;;;;;;;1.2;1;;;;;;;;;;;;;
2023/04/12 13:09:00;;;;;;;0.5;0.5;;;;;;;;;;;;;
2023/04/12 13:11:27;;;;;;;0.2;0.2;;;;;;;;;;;;;
2023/04/12 13:13:52;;;;;;;0.3;0.3;;;;;;;;;;;;;
2023/04/12 13:16:17;;;;;;;1;0.3;;;;;;;;;;;;;
2023/04/12 13:18:42;;;;;;;0.3;0.3;;;;;;;;;;;;;
2023/04/12 13:21:08;;;;;;;0.5;0.4;;;;;;;;;;;;;
2023/04/12 13:23:33;;;;;;;0.4;0.4;;;;;;;;;;;;;
2023/04/12 13:25:59;;;;;;;1.7;0.5;;;;;;;;;;;;;
2023/04/12 13:28:24;;;;;;;0.4;0.3;;;;;;;;;;;;;
2023/04/12 13:30:51;;;;;;;0.5;0.5;;;;;;;;;;;;;
2023/04/12 13:33:16;;;;;;;0.3;0.3;;;;;;;;;;;;;
2023/04/12 13:35:44;;;;;;;0.8;0.4;;;;;;;;;;;;;
2023/04/12 13:38:07;;;;;;;0.3;0.3;;;;;;;;;;;;;
2023/04/12 13:40:33;;;;;;;0.4;0.4;;;;;;;;;;;;;
2023/04/12 13:42:58;;;;;;;0.3;0.3;;;;;;;;;;;;;
2023/04/12 13:45:23;;;;;;;0.3;0.3;;;;;;;;;;;;;
2023/04/12 13:47:48;;;;;;;0.3;0.3;;;;;;;;;;;;;
2023/04/12 13:50:16;;;;;;;0.3;0.3;;;;;;;;;;;;;
2023/04/12 13:52:41;;;;;;;0.4;0.4;;;;;;;;;;;;;
2023/04/12 13:55:08;;;;;;;0.7;0.3;;;;;;;;;;;;;
2023/04/12 13:57:33;;;;;;;0.3;0.3;;;;;;;;;;;;;
2023/04/12 13:59:58;;;;;;;0.4;0.4;;;;;;;;;;;;;
2023/04/12 14:02:23;;;;;;;0.5;0.5;;;;;;;;;;;;;
2023/04/12 14:04:49;;;;;;;0.4;0.4;;;;;;;;;;;;;
2023/04/12 14:07:14;;;;;;;1.3;0.7;;;;;;;;;;;;;
2023/04/12 14:09:40;;;;;;;0.5;0.5;;;;;;;;;;;;;
2023/04/12 14:12:05;;;;;;;0.5;0.5;;;;;;;;;;;;;
2023/04/12 14:14:31;;;;;;;0.6;0.6;;;;;;;;;;;;;
2023/04/12 14:16:56;;;;;;;0.4;0.4;;;;;;;;;;;;;
2023/04/12 14:19:23;;;;;;;0.5;0.5;;;;;;;;;;;;;
2023/04/12 14:21:47;;;;;;;1;0.5;;;;;;;;;;;;;
2023/04/12 14:24:13;;;;;;;1;0.5;;;;;;;;;;;;;
2023/04/12 14:26:38;;;;;;;0.7;0.5;;;;;;;;;;;;;
2023/04/12 14:29:04;;;;;;;1.5;0.6;;;;;;;;;;;;;
2023/04/12 14:31:29;;;;;;;0.5;0.5;;;;;;;;;;;;;
2023/04/12 14:33:57;;;;;;;0.4;0.3;;;;;;;;;;;;;
2023/04/12 14:36:22;;;;;;;1.2;0.6;;;;;;;;;;;;;
2023/04/12 14:38:48;;;;;;;0.4;0.4;;;;;;;;;;;;;
2023/04/12 14:41:13;;;;;;;0.6;0.6;;;;;;;;;;;;;
2023/04/12 14:43:38;;;;;;;0.5;0.4;;;;;;;;;;;;;
2023/04/12 14:46:03;;;;;;;0.5;0.5;;;;;;;;;;;;;
2023/04/12 14:48:28;;;;;;;0.5;0.5;;;;;;;;;;;;;
2023/04/12 14:50:54;;;;;;;1.2;0.5;;;;;;;;;;;;;
2023/04/12 14:53:21;;;;;;;1.4;0.7;;;;;;;;;;;;;
2023/04/12 14:55:45;;;;;;;0.8;0.7;;;;;;;;;;;;;
2023/04/12 14:58:11;;;;;;;0.5;0.5;;;;;;;;;;;;;
2023/04/12 15:00:37;;;;;;;1.5;0.6;;;;;;;;;;;;;
2023/04/12 15:03:04;;;;;;;0.7;0.6;;;;;;;;;;;;;
2023/04/12 15:05:28;;;;;;;0.9;0.6;;;;;;;;;;;;;
2023/04/12 15:07:54;;;;;;;0.7;0.6;;;;;;;;;;;;;
2023/04/12 15:10:20;;;;;;;1.1;0.8;;;;;;;;;;;;;
2023/04/12 15:12:46;;;;;;;1.1;1;;;;;;;;;;;;;
2023/04/12 15:15:11;;;;;;;0.7;0.7;;;;;;;;;;;;;
2023/04/12 15:17:37;;;;;;;1.5;0.7;;;;;;;;;;;;;
2023/04/12 15:20:08;;;;;;;1;0.7;;;;;;;;;;;;;
2023/04/12 15:22:28;;;;;;;1.1;0.9;;;;;;;;;;;;;
2023/04/12 15:24:53;;;;;;;0.8;0.8;;;;;;;;;;;;;
2023/04/12 15:27:18;;;;;;;1.1;0.7;;;;;;;;;;;;;
2023/04/12 15:29:45;;;;;;;1.2;1;;;;;;;;;;;;;
2023/04/12 15:32:10;;;;;;;1.5;0.9;;;;;;;;;;;;;
2023/04/12 15:34:35;;;;;;;2.3;1.2;;;;;;;;;;;;;
2023/04/12 15:37:00;;;;;;;1.6;0.9;;;;;;;;;;;;;
2023/04/12 15:39:27;;;;;;;2.8;1.1;;;;;;;;;;;;;
2023/04/12 15:41:52;;;;;;;3.4;1;;;;;;;;;;;;;
2023/04/12 15:44:19;;;;;;;1.1;0.9;;;;;;;;;;;;;
2023/04/12 15:46:45;;;;;;;1.5;1;;;;;;;;;;;;;
2023/04/12 15:49:11;;;;;;;1.7;0.9;;;;;;;;;;;;;
2023/04/12 15:51:36;;;;;;;1.8;1.1;;;;;;;;;;;;;
2023/04/12 15:54:01;;;;;;;1.6;1;;;;;;;;;;;;;
2023/04/12 15:56:26;;;;;;;3.4;1.3;;;;;;;;;;;;;
2023/04/12 15:58:54;;;;;;;1.5;1;;;;;;;;;;;;;
2023/04/12 16:01:18;;;;;;;1.6;1.1;;;;;;;;;;;;;
2023/04/12 16:03:45;;;;;;;2.3;1.6;;;;;;;;;;;;;
2023/04/12 16:06:09;;;;;;;5.9;2.5;;;;;;;;;;;;;
2023/04/12 16:08:36;;;;;;;3.7;2.4;;;;;;;;;;;;;
2023/04/12 16:11:01;;;;;;;3.2;1.7;;;;;;;;;;;;;
2023/04/12 16:13:26;;;;;;;3.4;1.9;;;;;;;;;;;;;
2023/04/12 16:15:51;;;;;;;4.7;2.5;;;;;;;;;;;;;
2023/04/12 16:18:17;;;;;;;3.1;1.9;;;;;;;;;;;;;
2023/04/12 16:20:42;;;;;;;4.3;1.8;;;;;;;;;;;;;
2023/04/12 16:23:07;;;;;;;2.1;1.4;;;;;;;;;;;;;
2023/04/12 16:25:33;;;;;;;3;1.6;;;;;;;;;;;;;
2023/04/12 16:28:01;;;;;;;2.5;2.2;;;;;;;;;;;;;
2023/04/12 16:30:24;;;;;;;2.9;2.6;;;;;;;;;;;;;
2023/04/12 16:32:49;;;;;;;3.9;2.2;;;;;;;;;;;;;
2023/04/12 16:35:13;;;;;;;3.7;2.7;;;;;;;;;;;;;
2023/04/12 16:37:40;;;;;;;6.1;4.8;;;;;;;;;;;;;
2023/04/12 16:40:09;;;;;;;7;4.9;;;;;;;;;;;;;
2023/04/12 16:42:30;;;;;;;5.3;4;;;;;;;;;;;;;
2023/04/12 16:44:55;;;;;;;5.1;3.8;;;;;;;;;;;;;
2023/04/12 16:47:20;;;;;;;5;4.1;;;;;;;;;;;;;
2023/04/12 16:49:48;;;;;;;4.9;3.6;;;;;;;;;;;;;
2023/04/12 16:52:14;;;;;;;10.8;6.7;;;;;;;;;;;;;
2023/04/12 16:54:39;;;;;;;17.5;10.4;;;;;;;;;;;;;
2023/04/12 16:57:05;;;;;;;12.3;8.3;;;;;;;;;;;;;
2023/04/12 16:59:31;;;;;;;12.5;8.4;;;;;;;;;;;;;
2023/04/12 17:01:59;;;;;;;16.8;10.3;;;;;;;;;;;;;
2023/04/12 17:04:21;;;;;;;4.8;3.1;;;;;;;;;;;;;
2023/04/12 17:06:46;;;;;;;4.4;2.8;;;;;;;;;;;;;
2023/04/12 17:09:11;;;;;;;4;2.9;;;;;;;;;;;;;
2023/04/12 17:11:37;;;;;;;3.1;2.6;;;;;;;;;;;;;
2023/04/12 17:14:02;;;;;;;5;3.3;;;;;;;;;;;;;
2023/04/12 17:16:29;;;;;;;5.2;2.9;;;;;;;;;;;;;
2023/04/12 17:18:54;;;;;;;5.4;3;;;;;;;;;;;;;
2023/04/12 17:21:21;;;;;;;4.3;3;;;;;;;;;;;;;
2023/04/12 17:23:45;;;;;;;4;3.3;;;;;;;;;;;;;
2023/04/12 17:26:11;;;;;;;3.7;2.2;;;;;;;;;;;;;
2023/04/12 17:28:38;;;;;;;2.1;1.6;;;;;;;;;;;;;
2023/04/12 17:31:02;;;;;;;3.2;1.6;;;;;;;;;;;;;
2023/04/12 17:33:27;;;;;;;4;2;;;;;;;;;;;;;
2023/04/12 17:35:54;;;;;;;4;1.8;;;;;;;;;;;;;
2023/04/12 17:38:19;;;;;;;4.6;2.2;;;;;;;;;;;;;
2023/04/12 17:40:45;;;;;;;3.5;2.7;;;;;;;;;;;;;
2023/04/12 17:43:10;;;;;;;6.6;5.4;;;;;;;;;;;;;
2023/04/12 17:45:37;;;;;;;6.9;4.2;;;;;;;;;;;;;
2023/04/12 17:48:02;;;;;;;5.6;4.4;;;;;;;;;;;;;
2023/04/12 17:50:28;;;;;;;5.7;4.5;;;;;;;;;;;;;
2023/04/12 17:52:54;;;;;;;5.5;4.1;;;;;;;;;;;;;
2023/04/12 17:55:22;;;;;;;4.7;3.4;;;;;;;;;;;;;
2023/04/12 17:57:43;;;;;;;4.5;2.8;;;;;;;;;;;;;
2023/04/12 18:00:16;;;;;;;4.6;2.5;;;;;;;;;;;;;
2023/04/12 18:02:38;;;;;;;3.2;2.8;;;;;;;;;;;;;
2023/04/12 18:05:06;;;;;;;5.5;3.2;;;;;;;;;;;;;
2023/04/12 18:07:31;;;;;;;5.4;3.2;;;;;;;;;;;;;
2023/04/12 18:09:55;;;;;;;5.4;4.1;;;;;;;;;;;;;
2023/04/12 18:12:20;;;;;;;3.9;3.2;;;;;;;;;;;;;
2023/04/12 18:14:46;;;;;;;4.8;3.2;;;;;;;;;;;;;
2023/04/12 18:17:11;;;;;;;3.5;3.2;;;;;;;;;;;;;
2023/04/12 18:19:38;;;;;;;4.7;3.3;;;;;;;;;;;;;
2023/04/12 18:22:03;;;;;;;4.4;3.1;;;;;;;;;;;;;
2023/04/12 18:24:29;;;;;;;4.2;2.7;;;;;;;;;;;;;
2023/04/12 18:26:55;;;;;;;10.4;4;;;;;;;;;;;;;
2023/04/12 18:29:19;;;;;;;5.3;3.1;;;;;;;;;;;;;
2023/04/12 18:31:45;;;;;;;4.4;1.9;;;;;;;;;;;;;
2023/04/12 18:34:12;;;;;;;4.1;2.2;;;;;;;;;;;;;
2023/04/12 18:36:38;;;;;;;2.6;2.1;;;;;;;;;;;;;
2023/04/12 18:39:04;;;;;;;3.7;2.7;;;;;;;;;;;;;
2023/04/12 18:41:29;;;;;;;3.4;2.4;;;;;;;;;;;;;
2023/04/12 18:43:55;;;;;;;3.7;3;;;;;;;;;;;;;
2023/04/12 18:46:19;;;;;;;3.2;2.6;;;;;;;;;;;;;
2023/04/12 18:48:46;;;;;;;3.7;2.6;;;;;;;;;;;;;
2023/04/12 18:51:11;;;;;;;2.8;2.2;;;;;;;;;;;;;
2023/04/12 18:53:36;;;;;;;11.9;6.1;;;;;;;;;;;;;
2023/04/12 18:56:01;;;;;;;6.4;3;;;;;;;;;;;;;
2023/04/12 18:58:28;;;;;;;3.8;3.2;;;;;;;;;;;;;
2023/04/12 19:00:53;;;;;;;4.1;3.1;;;;;;;;;;;;;
2023/04/12 19:03:18;;;;;;;5.3;3.5;;;;;;;;;;;;;
2023/04/12 19:05:44;;;;;;;8.2;5.3;;;;;;;;;;;;;
2023/04/12 19:08:10;;;;;;;7.1;3.9;;;;;;;;;;;;;
2023/04/12 19:10:35;;;;;;;3.6;2.9;;;;;;;;;;;;;
2023/04/12 19:13:02;;;;;;;3.5;2.7;;;;;;;;;;;;;